Webbwood, Canada
Current Conditions -  °F | °C
As of 3:00 AM on Thursday 18 Dec 2014 (Local Time) from CYZE Reporting Station
Overcast Overcast  
Wind Chill:   Ceiling: 1700
Heat Index: 19°   Visibility: 9mi
Dew Point: 16°   Wind: 9mph
Humidity: 86%   Direction: 340°NNW
Pressure: 30.12"   Gusts: NA
Location:  46.27°N, 81.88°W
Report Text: CYZE 180800Z AUTO 34008KT 9SM OVC017 M07/M09 A3012 RMK ICG SLP211
Loading
Personal Weather Stations






























Interactive Weather Map New forecast layout! Learn more

10-Day Weather Forecast

Advertisements
Track Severe Weather on mobile